createdAt,value
2018-11-22T12:15:54.513Z,28.40
2018-11-22T12:18:22.568Z,30.05
2018-11-22T12:20:50.631Z,29.67
2018-11-22T12:23:18.735Z,30.87
2018-11-22T12:25:46.789Z,30.77
2018-11-22T12:28:14.982Z,30.80
2018-11-22T12:30:43.042Z,32.30
2018-11-22T12:33:19.401Z,33.58
2018-11-22T12:35:53.488Z,29.37
2018-11-22T12:38:26.978Z,30.90
2018-11-22T12:40:55.079Z,27.13
2018-11-22T12:43:23.262Z,28.27
2018-11-22T12:45:51.534Z,28.10
2018-11-22T12:48:19.978Z,27.13
2018-11-22T12:50:48.195Z,28.00
2018-11-22T12:53:23.190Z,29.05
2018-11-22T12:55:52.134Z,28.90
2018-11-22T12:58:20.213Z,31.40
2018-11-22T13:00:48.258Z,30.15
2018-11-22T13:03:16.372Z,26.90
2018-11-22T13:05:44.527Z,28.43
2018-11-22T13:08:12.650Z,28.30
2018-11-22T13:10:40.773Z,30.00
2018-11-22T13:13:08.902Z,30.15
2018-11-22T13:15:37.905Z,29.25
2018-11-22T13:18:06.314Z,32.90
2018-11-22T13:20:34.554Z,36.53
2018-11-22T13:23:02.469Z,31.25
2018-11-22T13:25:30.707Z,34.20
2018-11-22T13:27:58.841Z,32.70
2018-11-22T13:30:27.938Z,29.55
2018-11-22T13:32:56.665Z,34.20
2018-11-22T13:35:24.735Z,29.55
2018-11-22T13:37:53.890Z,31.33
2018-11-22T13:40:22.041Z,29.65
2018-11-22T13:42:50.775Z,32.17
2018-11-22T13:45:21.175Z,35.50
2018-11-22T13:47:50.388Z,32.25
2018-11-22T13:50:23.883Z,32.70
2018-11-22T13:52:54.355Z,33.42
2018-11-22T13:55:22.419Z,33.63
2018-11-22T13:57:50.413Z,33.83
2018-11-22T14:00:21.499Z,33.55
2018-11-22T14:02:51.034Z,34.65
2018-11-22T14:05:19.094Z,30.85
2018-11-22T14:07:47.189Z,34.30
2018-11-22T14:10:16.783Z,32.70
2018-11-22T14:12:44.956Z,32.95
2018-11-22T14:15:15.245Z,33.05
2018-11-22T14:17:43.915Z,35.10
2018-11-22T14:20:14.492Z,31.93
2018-11-22T14:22:42.649Z,39.00
2018-11-22T14:25:11.930Z,33.42
2018-11-22T14:27:40.770Z,32.60
2018-11-22T14:30:10.779Z,34.73
2018-11-22T14:32:39.727Z,36.05
2018-11-22T14:35:09.262Z,33.67
2018-11-22T14:37:37.532Z,35.13
2018-11-22T14:40:08.935Z,40.95
2018-11-22T14:42:37.133Z,33.70
2018-11-22T14:45:05.958Z,33.75
2018-11-22T14:47:34.053Z,35.58
2018-11-22T14:50:02.394Z,32.90
2018-11-22T14:52:30.506Z,36.50
2018-11-22T14:54:58.819Z,36.40
2018-11-22T14:57:27.015Z,32.28
2018-11-22T14:59:55.928Z,37.40
2018-11-22T15:02:24.110Z,35.45
2018-11-22T15:04:52.232Z,34.35
2018-11-22T15:07:20.561Z,38.02
2018-11-22T15:09:48.685Z,35.57
2018-11-22T15:12:16.750Z,37.30
2018-11-22T15:14:44.843Z,37.23
2018-11-22T15:17:12.994Z,38.90
2018-11-22T15:19:41.590Z,35.87
2018-11-22T15:22:09.748Z,39.80
2018-11-22T15:24:37.943Z,38.87
2018-11-22T15:27:06.033Z,42.05
2018-11-22T15:29:34.781Z,38.63
2018-11-22T15:32:02.969Z,38.53
2018-11-22T15:34:31.120Z,40.10
2018-11-22T15:36:59.339Z,41.30
2018-11-22T15:39:27.333Z,40.95
2018-11-22T15:41:55.557Z,39.20
2018-11-22T15:44:24.549Z,37.10
2018-11-22T15:46:52.623Z,36.68
2018-11-22T15:49:20.920Z,39.00
2018-11-22T15:51:49.149Z,40.60
2018-11-22T15:54:17.354Z,39.60
2018-11-22T15:56:45.527Z,40.95
2018-11-22T15:59:13.700Z,42.50
2018-11-22T16:01:42.361Z,38.02
2018-11-22T16:04:10.562Z,37.03
2018-11-22T16:06:38.713Z,37.85
2018-11-22T16:09:09.759Z,38.43
2018-11-22T16:11:37.948Z,38.23
2018-11-22T16:14:06.264Z,40.85
2018-11-22T16:16:34.589Z,40.12
2018-11-22T16:19:02.804Z,40.33
2018-11-22T16:21:31.022Z,40.52
2018-11-22T16:23:59.217Z,37.05
2018-11-22T16:26:27.413Z,42.75
2018-11-22T16:28:55.548Z,42.50
2018-11-22T16:31:23.647Z,41.40
2018-11-22T16:33:51.787Z,44.75
2018-11-22T16:36:19.708Z,43.38
2018-11-22T16:38:47.619Z,39.27
2018-11-22T16:41:15.594Z,40.65
2018-11-22T16:43:43.516Z,41.15
2018-11-22T16:46:11.453Z,47.03
2018-11-22T16:48:39.433Z,41.70
2018-11-22T16:51:07.337Z,39.92
2018-11-22T16:53:35.285Z,41.35
2018-11-22T16:56:03.228Z,40.43
2018-11-22T16:58:31.490Z,40.38
2018-11-22T17:00:59.405Z,38.05
2018-11-22T17:03:27.617Z,40.92
2018-11-22T17:05:55.814Z,40.45
2018-11-22T17:08:23.757Z,39.15
2018-11-22T17:10:51.994Z,41.30
2018-11-22T17:13:20.109Z,39.25
2018-11-22T17:15:48.413Z,43.30
2018-11-22T17:18:16.461Z,38.48
2018-11-22T17:20:44.958Z,42.80
2018-11-22T17:23:13.202Z,38.27
2018-11-22T17:25:41.310Z,36.60
2018-11-22T17:28:09.805Z,36.95
2018-11-22T17:30:39.692Z,40.03
2018-11-22T17:33:08.854Z,41.18
2018-11-22T17:35:38.383Z,41.88
2018-11-22T17:38:07.542Z,38.73
2018-11-22T17:40:38.030Z,40.03
2018-11-22T17:43:06.506Z,35.80
2018-11-22T17:45:38.383Z,41.58
2018-11-22T17:48:06.704Z,41.90
2018-11-22T17:50:36.390Z,39.85
2018-11-22T17:53:04.951Z,41.77
2018-11-22T17:55:33.513Z,41.47
2018-11-22T17:58:01.715Z,41.92
2018-11-22T18:00:33.694Z,44.50
2018-11-22T18:03:02.822Z,39.58
2018-11-22T18:05:31.222Z,40.45
2018-11-22T18:07:59.464Z,43.05
2018-11-22T18:10:30.961Z,43.08
2018-11-22T18:12:59.433Z,41.80
2018-11-22T18:15:28.426Z,48.57
2018-11-22T18:17:56.809Z,46.58
2018-11-22T18:20:26.552Z,41.20
2018-11-22T18:22:55.633Z,47.35
2018-11-22T18:25:24.985Z,42.33
2018-11-22T18:27:53.383Z,42.50
2018-11-22T18:30:29.711Z,41.45
2018-11-22T18:32:59.825Z,41.65
2018-11-22T18:35:28.128Z,40.90
2018-11-22T18:37:56.329Z,44.87
2018-11-22T18:40:26.624Z,42.08
2018-11-22T18:42:55.800Z,45.00
2018-11-22T18:45:30.503Z,48.87
2018-11-22T18:47:59.281Z,50.45
2018-11-22T18:50:28.317Z,57.80
2018-11-22T18:52:56.630Z,201.90
2018-11-22T18:55:24.793Z,72.90
2018-11-22T18:57:53.071Z,64.10
2018-11-22T19:00:25.078Z,53.58
2018-11-22T19:02:54.415Z,49.67
2018-11-22T19:05:23.016Z,49.93
2018-11-22T19:07:52.656Z,50.95
2018-11-22T19:10:29.083Z,49.50
2018-11-22T19:12:58.496Z,49.30
2018-11-22T19:15:28.020Z,52.10
2018-11-22T19:17:56.111Z,51.68
2018-11-22T19:20:27.458Z,52.43
2018-11-22T19:22:56.292Z,50.73
2018-11-22T19:25:24.577Z,49.70
2018-11-22T19:27:53.150Z,49.93
2018-11-22T19:30:24.929Z,51.35
2018-11-22T19:32:54.449Z,49.65
2018-11-22T19:35:23.843Z,50.85
2018-11-22T19:37:52.290Z,52.93
2018-11-22T19:40:25.590Z,55.63
2018-11-22T19:42:54.721Z,55.65
2018-11-22T19:45:24.254Z,57.83
2018-11-22T19:47:52.880Z,56.08
2018-11-22T19:50:23.295Z,51.80
2018-11-22T19:52:51.944Z,54.33
2018-11-22T19:55:22.878Z,54.20
2018-11-22T19:57:53.549Z,53.15
2018-11-22T20:00:22.662Z,58.60
2018-11-22T20:02:51.586Z,57.67
2018-11-22T20:05:20.561Z,57.67
2018-11-22T20:07:50.945Z,53.65
2018-11-22T20:10:22.273Z,53.87
2018-11-22T20:12:51.125Z,57.27
2018-11-22T20:15:19.319Z,56.98
2018-11-22T20:17:48.254Z,63.45
2018-11-22T20:20:18.122Z,67.50
2018-11-22T20:22:45.735Z,62.43
2018-11-22T20:25:13.860Z,60.17
2018-11-22T20:27:42.346Z,59.67
2018-11-22T20:30:13.617Z,58.02
2018-11-22T20:32:42.348Z,56.30
2018-11-22T20:35:12.236Z,59.40
2018-11-22T20:37:40.258Z,58.78
2018-11-22T20:40:09.681Z,54.40
2018-11-22T20:42:38.295Z,62.50
2018-11-22T20:45:08.055Z,57.08
2018-11-22T20:47:36.193Z,60.67
2018-11-22T20:50:05.359Z,63.10
2018-11-22T20:52:33.810Z,63.10
2018-11-22T20:55:01.885Z,63.38
2018-11-22T20:57:30.035Z,55.25
2018-11-22T20:59:58.150Z,61.45
2018-11-22T21:02:27.784Z,60.80
2018-11-22T21:04:55.986Z,61.88
2018-11-22T21:07:23.940Z,65.65
2018-11-22T21:09:52.134Z,64.20
2018-11-22T21:12:20.073Z,58.35
2018-11-22T21:14:48.104Z,56.80
2018-11-22T21:17:16.041Z,64.97
2018-11-22T21:19:44.082Z,61.70
2018-11-22T21:22:12.189Z,57.55
2018-11-22T21:24:40.550Z,57.33
2018-11-22T21:27:08.629Z,62.73
2018-11-22T21:29:38.656Z,58.28
2018-11-22T21:32:07.032Z,64.97
2018-11-22T21:34:35.007Z,67.27
2018-11-22T21:37:03.047Z,61.88
2018-11-22T21:39:31.096Z,58.63
2018-11-22T21:41:59.212Z,61.70
2018-11-22T21:44:27.149Z,62.20
2018-11-22T21:46:55.238Z,61.55
2018-11-22T21:49:24.328Z,60.55
2018-11-22T21:51:54.584Z,60.40
2018-11-22T21:54:22.749Z,67.70
2018-11-22T21:56:54.495Z,63.85
2018-11-22T21:59:22.686Z,56.08
2018-11-22T22:01:52.207Z,57.25
2018-11-22T22:04:20.373Z,55.25
2018-11-22T22:06:48.433Z,56.00
2018-11-22T22:09:16.410Z,57.83
2018-11-22T22:11:44.396Z,53.02
2018-11-22T22:14:12.418Z,56.08
2018-11-22T22:16:40.383Z,55.30
2018-11-22T22:19:08.413Z,55.92
2018-11-22T22:21:36.473Z,53.83
2018-11-22T22:24:04.526Z,54.63
2018-11-22T22:26:32.712Z,54.03
2018-11-22T22:29:00.725Z,60.80
2018-11-22T22:31:31.200Z,61.08
2018-11-22T22:33:59.237Z,60.13
2018-11-22T22:36:28.169Z,61.13
2018-11-22T22:38:56.762Z,62.40
2018-11-22T22:41:31.837Z,63.02
2018-11-22T22:44:01.608Z,66.00
2018-11-22T22:46:29.612Z,62.10
2018-11-22T22:48:58.728Z,73.52
2018-11-22T22:51:49.034Z,71.90
2018-11-22T22:54:40.450Z,72.70
2018-11-22T22:57:34.341Z,67.58
2018-11-22T23:00:31.063Z,68.45
2018-11-22T23:03:18.877Z,64.27
2018-11-22T23:06:14.988Z,64.45
2018-11-22T23:09:11.576Z,67.15
2018-11-22T23:12:11.614Z,70.70
2018-11-22T23:15:10.497Z,78.60
2018-11-22T23:18:09.267Z,78.42
2018-11-22T23:21:07.192Z,91.17
2018-11-22T23:24:01.674Z,89.47
2018-11-22T23:29:52.255Z,93.50
2018-11-22T23:32:45.467Z,83.03
2018-11-22T23:38:43.053Z,97.78
2018-11-22T23:41:40.946Z,104.92
2018-11-22T23:44:35.467Z,107.12
2018-11-22T23:47:28.790Z,127.67
2018-11-22T23:50:31.744Z,116.17
2018-11-22T23:53:25.775Z,118.97
2018-11-22T23:58:06.439Z,106.83
